MMRX

Details ICAO MMRX (REX)
Name GENERAL LUCIO BLANCO INTL
Region Mexico
Timezone America/Matamoros (UTC-6.0)
Plans Departing 6
Arriving 17
Stats Elevation 139 ft / 42 m (AMSL)
Location 26.008907° -98.228514°
Runways 1
Magnetic Variation 4.127° E
Sunrise 2017-12-15 13:13:58 UTC / 2017-12-15 07:13:58 Local
Sunset 2017-12-15 23:45:13 UTC / 2017-12-15 17:45:13 Local
Advertisement - Login to hide

Runways

ID Width Length Bearing (true) Bearing (mag) Surface Threshold Offset Overrun Length
13 148 ft / 45 m 6,242 ft / 1,903 m 141.04° 136.91° Asphalt 0 ft / 0 m 200 ft / 61 m
31 148 ft / 45 m 6,242 ft / 1,903 m 321.05° 316.92° Asphalt 0 ft / 0 m 200 ft / 61 m

Map

Weather


0- 5 10 15 20 25 30 35+ Temperature / ° C

Clouds and Precipitation
Forecast for 2017-12-15 06:00 UTC. Updated an hour ago

Ground ~20,000 ft ~40,000 ft Winds

METAR

Not found

TAF

TAF MMRX 150527Z 1506/1606 30010KT 4SM HZ SCT015 BKN100 OVC200 FM151000 34010G20KT 4SM -RA BR BKN010 OVC070 TEMPO 1512/1515 2SM -RA BR BKN005 FM151800 34020G30KT 5SM -RA BKN010 OVC030 FM160300 34015KT 5SM HZ BKN015 BKN070

Frequencies

Approach 118.80 MHz REYNOSA APP/TWR
Warning: Do not use this data for real-world aviation or navigation. No guarantee of current accuracy is given.